sensor_id;sensor_type;location;lat;lon;timestamp;P1;durP1;ratioP1;P2;durP2;ratioP2
33786;SDS011;29742;51.540;9.358;2022-07-03T00:01:15;3.03;;;0.90;;
33786;SDS011;29742;51.540;9.358;2022-07-03T00:06:16;2.10;;;0.98;;
33786;SDS011;29742;51.540;9.358;2022-07-03T00:11:17;3.33;;;1.48;;
33786;SDS011;29742;51.540;9.358;2022-07-03T00:16:18;3.05;;;0.88;;
33786;SDS011;29742;51.540;9.358;2022-07-03T00:21:20;1.40;;;0.80;;
33786;SDS011;29742;51.540;9.358;2022-07-03T00:26:21;9.38;;;1.17;;
33786;SDS011;29742;51.540;9.358;2022-07-03T00:31:22;2.15;;;0.85;;
33786;SDS011;29742;51.540;9.358;2022-07-03T00:36:26;0.85;;;0.50;;
33786;SDS011;29742;51.540;9.358;2022-07-03T00:41:28;2.25;;;0.80;;
33786;SDS011;29742;51.540;9.358;2022-07-03T00:46:29;2.90;;;1.05;;
33786;SDS011;29742;51.540;9.358;2022-07-03T00:51:30;1.70;;;0.70;;
33786;SDS011;29742;51.540;9.358;2022-07-03T00:56:32;2.92;;;1.67;;
33786;SDS011;29742;51.540;9.358;2022-07-03T01:01:34;1.52;;;0.80;;
33786;SDS011;29742;51.540;9.358;2022-07-03T01:06:46;0.70;;;0.70;;
33786;SDS011;29742;51.540;9.358;2022-07-03T01:11:56;1.05;;;0.70;;
33786;SDS011;29742;51.540;9.358;2022-07-03T01:17:00;0.73;;;0.60;;
33786;SDS011;29742;51.540;9.358;2022-07-03T01:27:04;0.70;;;0.70;;
33786;SDS011;29742;51.540;9.358;2022-07-03T01:32:07;2.47;;;0.93;;
33786;SDS011;29742;51.540;9.358;2022-07-03T01:37:09;1.25;;;0.60;;
33786;SDS011;29742;51.540;9.358;2022-07-03T01:42:10;0.93;;;0.60;;
33786;SDS011;29742;51.540;9.358;2022-07-03T01:47:11;2.03;;;0.60;;
33786;SDS011;29742;51.540;9.358;2022-07-03T01:52:15;1.07;;;0.70;;
33786;SDS011;29742;51.540;9.358;2022-07-03T01:57:17;3.05;;;0.85;;
33786;SDS011;29742;51.540;9.358;2022-07-03T02:02:24;1.35;;;0.90;;
33786;SDS011;29742;51.540;9.358;2022-07-03T02:12:27;0.88;;;0.57;;
33786;SDS011;29742;51.540;9.358;2022-07-03T02:17:38;1.83;;;0.98;;
33786;SDS011;29742;51.540;9.358;2022-07-03T02:22:44;1.38;;;0.57;;
33786;SDS011;29742;51.540;9.358;2022-07-03T02:32:55;1.67;;;1.02;;
33786;SDS011;29742;51.540;9.358;2022-07-03T02:38:11;1.65;;;0.93;;
33786;SDS011;29742;51.540;9.358;2022-07-03T02:43:34;0.50;;;0.50;;
33786;SDS011;29742;51.540;9.358;2022-07-03T02:48:40;2.47;;;0.90;;
33786;SDS011;29742;51.540;9.358;2022-07-03T02:53:44;1.33;;;0.70;;
33786;SDS011;29742;51.540;9.358;2022-07-03T02:59:03;1.30;;;0.80;;
33786;SDS011;29742;51.540;9.358;2022-07-03T03:04:09;1.30;;;0.70;;
33786;SDS011;29742;51.540;9.358;2022-07-03T03:09:14;0.50;;;0.50;;
33786;SDS011;29742;51.540;9.358;2022-07-03T03:14:20;0.65;;;0.60;;
33786;SDS011;29742;51.540;9.358;2022-07-03T03:19:22;1.15;;;0.82;;
33786;SDS011;29742;51.540;9.358;2022-07-03T03:24:24;1.70;;;1.00;;
33786;SDS011;29742;51.540;9.358;2022-07-03T03:29:26;2.33;;;1.02;;
33786;SDS011;29742;51.540;9.358;2022-07-03T03:34:27;5.70;;;1.55;;
33786;SDS011;29742;51.540;9.358;2022-07-03T03:39:28;2.08;;;1.30;;
33786;SDS011;29742;51.540;9.358;2022-07-03T03:44:29;2.60;;;1.25;;
33786;SDS011;29742;51.540;9.358;2022-07-03T03:49:30;1.83;;;1.20;;
33786;SDS011;29742;51.540;9.358;2022-07-03T03:54:31;4.78;;;1.75;;
33786;SDS011;29742;51.540;9.358;2022-07-03T03:59:32;6.68;;;1.52;;
33786;SDS011;29742;51.540;9.358;2022-07-03T04:04:35;6.70;;;1.70;;
33786;SDS011;29742;51.540;9.358;2022-07-03T04:09:36;2.47;;;1.65;;
33786;SDS011;29742;51.540;9.358;2022-07-03T04:14:37;9.88;;;2.50;;
33786;SDS011;29742;51.540;9.358;2022-07-03T04:19:38;6.22;;;1.95;;
33786;SDS011;29742;51.540;9.358;2022-07-03T04:24:39;6.93;;;2.00;;
33786;SDS011;29742;51.540;9.358;2022-07-03T04:29:40;3.15;;;1.50;;
33786;SDS011;29742;51.540;9.358;2022-07-03T04:34:41;9.00;;;1.73;;
33786;SDS011;29742;51.540;9.358;2022-07-03T04:39:42;5.95;;;2.60;;
33786;SDS011;29742;51.540;9.358;2022-07-03T04:44:43;5.25;;;1.50;;
33786;SDS011;29742;51.540;9.358;2022-07-03T04:49:44;4.82;;;1.70;;
33786;SDS011;29742;51.540;9.358;2022-07-03T04:54:45;3.88;;;1.77;;
33786;SDS011;29742;51.540;9.358;2022-07-03T04:59:46;3.38;;;1.42;;
33786;SDS011;29742;51.540;9.358;2022-07-03T05:04:47;2.40;;;1.70;;
33786;SDS011;29742;51.540;9.358;2022-07-03T05:09:48;1.70;;;1.50;;
33786;SDS011;29742;51.540;9.358;2022-07-03T05:14:49;6.82;;;1.73;;
33786;SDS011;29742;51.540;9.358;2022-07-03T05:19:50;12.30;;;2.40;;
33786;SDS011;29742;51.540;9.358;2022-07-03T05:25:11;2.38;;;1.70;;
33786;SDS011;29742;51.540;9.358;2022-07-03T05:30:12;2.38;;;1.90;;
33786;SDS011;29742;51.540;9.358;2022-07-03T05:35:13;6.47;;;2.20;;
33786;SDS011;29742;51.540;9.358;2022-07-03T05:40:14;3.53;;;1.88;;
33786;SDS011;29742;51.540;9.358;2022-07-03T05:45:15;2.30;;;1.38;;
33786;SDS011;29742;51.540;9.358;2022-07-03T05:50:16;6.93;;;1.38;;
33786;SDS011;29742;51.540;9.358;2022-07-03T05:55:17;5.95;;;1.90;;
33786;SDS011;29742;51.540;9.358;2022-07-03T06:00:18;5.18;;;1.60;;
33786;SDS011;29742;51.540;9.358;2022-07-03T06:05:19;6.28;;;1.83;;
33786;SDS011;29742;51.540;9.358;2022-07-03T06:10:20;5.40;;;1.65;;
33786;SDS011;29742;51.540;9.358;2022-07-03T06:15:21;7.30;;;2.58;;
33786;SDS011;29742;51.540;9.358;2022-07-03T06:20:22;10.82;;;2.65;;
33786;SDS011;29742;51.540;9.358;2022-07-03T06:25:23;12.10;;;3.42;;
33786;SDS011;29742;51.540;9.358;2022-07-03T06:30:24;15.90;;;3.85;;
33786;SDS011;29742;51.540;9.358;2022-07-03T06:35:25;11.35;;;4.05;;
33786;SDS011;29742;51.540;9.358;2022-07-03T06:40:26;19.58;;;4.65;;
33786;SDS011;29742;51.540;9.358;2022-07-03T06:45:27;13.38;;;3.45;;
33786;SDS011;29742;51.540;9.358;2022-07-03T06:50:28;20.55;;;4.07;;
33786;SDS011;29742;51.540;9.358;2022-07-03T06:55:29;19.80;;;3.47;;
33786;SDS011;29742;51.540;9.358;2022-07-03T07:00:30;14.98;;;3.60;;
33786;SDS011;29742;51.540;9.358;2022-07-03T07:05:31;10.02;;;3.13;;
33786;SDS011;29742;51.540;9.358;2022-07-03T07:10:32;12.82;;;3.72;;
33786;SDS011;29742;51.540;9.358;2022-07-03T07:15:33;8.45;;;2.63;;
33786;SDS011;29742;51.540;9.358;2022-07-03T07:20:34;9.35;;;3.85;;
33786;SDS011;29742;51.540;9.358;2022-07-03T07:25:35;13.43;;;3.58;;
33786;SDS011;29742;51.540;9.358;2022-07-03T07:30:36;13.80;;;3.42;;
33786;SDS011;29742;51.540;9.358;2022-07-03T07:35:39;8.02;;;3.03;;
33786;SDS011;29742;51.540;9.358;2022-07-03T07:40:40;16.88;;;3.40;;
33786;SDS011;29742;51.540;9.358;2022-07-03T07:45:42;11.07;;;2.95;;
33786;SDS011;29742;51.540;9.358;2022-07-03T07:50:43;10.23;;;2.72;;
33786;SDS011;29742;51.540;9.358;2022-07-03T07:55:44;8.15;;;3.30;;
33786;SDS011;29742;51.540;9.358;2022-07-03T08:00:45;7.13;;;2.97;;
33786;SDS011;29742;51.540;9.358;2022-07-03T08:06:04;12.00;;;4.60;;
33786;SDS011;29742;51.540;9.358;2022-07-03T08:11:05;11.48;;;3.28;;
33786;SDS011;29742;51.540;9.358;2022-07-03T08:16:06;7.85;;;2.92;;
33786;SDS011;29742;51.540;9.358;2022-07-03T08:21:07;8.73;;;3.35;;
33786;SDS011;29742;51.540;9.358;2022-07-03T08:26:08;6.32;;;2.95;;
33786;SDS011;29742;51.540;9.358;2022-07-03T08:31:09;6.72;;;2.55;;
33786;SDS011;29742;51.540;9.358;2022-07-03T08:36:11;8.23;;;3.53;;
33786;SDS011;29742;51.540;9.358;2022-07-03T08:41:12;6.55;;;3.00;;
33786;SDS011;29742;51.540;9.358;2022-07-03T08:46:14;8.95;;;2.85;;
33786;SDS011;29742;51.540;9.358;2022-07-03T08:51:15;11.48;;;2.78;;
33786;SDS011;29742;51.540;9.358;2022-07-03T08:56:17;7.63;;;3.10;;
33786;SDS011;29742;51.540;9.358;2022-07-03T09:01:18;8.23;;;2.50;;
33786;SDS011;29742;51.540;9.358;2022-07-03T09:06:21;8.65;;;2.75;;
33786;SDS011;29742;51.540;9.358;2022-07-03T09:11:22;9.52;;;2.28;;
33786;SDS011;29742;51.540;9.358;2022-07-03T09:16:23;5.72;;;2.78;;
33786;SDS011;29742;51.540;9.358;2022-07-03T09:21:24;6.47;;;2.50;;
33786;SDS011;29742;51.540;9.358;2022-07-03T09:26:25;6.43;;;2.88;;
33786;SDS011;29742;51.540;9.358;2022-07-03T09:31:28;7.07;;;2.38;;
33786;SDS011;29742;51.540;9.358;2022-07-03T09:36:45;4.72;;;2.50;;
33786;SDS011;29742;51.540;9.358;2022-07-03T09:41:54;3.92;;;2.28;;
33786;SDS011;29742;51.540;9.358;2022-07-03T09:57:29;4.20;;;2.03;;
33786;SDS011;29742;51.540;9.358;2022-07-03T10:02:30;5.63;;;2.45;;
33786;SDS011;29742;51.540;9.358;2022-07-03T10:07:31;6.13;;;2.60;;
33786;SDS011;29742;51.540;9.358;2022-07-03T10:12:32;5.10;;;2.15;;
33786;SDS011;29742;51.540;9.358;2022-07-03T10:17:33;6.85;;;2.67;;
33786;SDS011;29742;51.540;9.358;2022-07-03T10:22:34;3.65;;;2.03;;
33786;SDS011;29742;51.540;9.358;2022-07-03T10:27:37;6.38;;;2.28;;
33786;SDS011;29742;51.540;9.358;2022-07-03T10:32:39;6.60;;;2.65;;
33786;SDS011;29742;51.540;9.358;2022-07-03T10:43:05;6.60;;;2.47;;
33786;SDS011;29742;51.540;9.358;2022-07-03T10:53:48;4.22;;;1.92;;
33786;SDS011;29742;51.540;9.358;2022-07-03T10:58:59;3.15;;;1.98;;
33786;SDS011;29742;51.540;9.358;2022-07-03T11:04:00;5.35;;;2.40;;
33786;SDS011;29742;51.540;9.358;2022-07-03T11:09:05;6.90;;;2.10;;
33786;SDS011;29742;51.540;9.358;2022-07-03T11:14:18;3.97;;;1.70;;
33786;SDS011;29742;51.540;9.358;2022-07-03T11:19:25;3.00;;;1.88;;
33786;SDS011;29742;51.540;9.358;2022-07-03T11:29:28;5.18;;;2.33;;
33786;SDS011;29742;51.540;9.358;2022-07-03T11:34:29;4.40;;;1.50;;
33786;SDS011;29742;51.540;9.358;2022-07-03T11:39:42;5.88;;;2.10;;
33786;SDS011;29742;51.540;9.358;2022-07-03T11:44:44;3.30;;;1.80;;
33786;SDS011;29742;51.540;9.358;2022-07-03T11:49:48;4.25;;;1.90;;
33786;SDS011;29742;51.540;9.358;2022-07-03T11:54:51;2.55;;;2.05;;
33786;SDS011;29742;51.540;9.358;2022-07-03T11:59:54;4.97;;;2.15;;
33786;SDS011;29742;51.540;9.358;2022-07-03T12:05:13;6.90;;;3.55;;
33786;SDS011;29742;51.540;9.358;2022-07-03T12:10:14;3.60;;;1.48;;
33786;SDS011;29742;51.540;9.358;2022-07-03T12:15:15;3.25;;;1.90;;
33786;SDS011;29742;51.540;9.358;2022-07-03T12:20:17;3.35;;;2.05;;
33786;SDS011;29742;51.540;9.358;2022-07-03T12:25:18;3.05;;;1.45;;
33786;SDS011;29742;51.540;9.358;2022-07-03T12:30:19;2.95;;;1.60;;
33786;SDS011;29742;51.540;9.358;2022-07-03T12:35:30;2.88;;;1.88;;
33786;SDS011;29742;51.540;9.358;2022-07-03T12:40:31;2.42;;;1.67;;
33786;SDS011;29742;51.540;9.358;2022-07-03T12:45:32;2.85;;;1.40;;
33786;SDS011;29742;51.540;9.358;2022-07-03T12:50:49;4.25;;;1.90;;
33786;SDS011;29742;51.540;9.358;2022-07-03T12:55:51;2.92;;;1.67;;
33786;SDS011;29742;51.540;9.358;2022-07-03T13:00:52;4.18;;;1.50;;
33786;SDS011;29742;51.540;9.358;2022-07-03T13:05:53;3.92;;;1.55;;
33786;SDS011;29742;51.540;9.358;2022-07-03T13:10:57;2.53;;;1.55;;
33786;SDS011;29742;51.540;9.358;2022-07-03T13:20:59;2.70;;;1.33;;
33786;SDS011;29742;51.540;9.358;2022-07-03T13:26:00;2.65;;;1.50;;
33786;SDS011;29742;51.540;9.358;2022-07-03T13:31:01;2.38;;;1.60;;
33786;SDS011;29742;51.540;9.358;2022-07-03T13:36:04;2.05;;;1.40;;
33786;SDS011;29742;51.540;9.358;2022-07-03T13:41:05;3.40;;;1.80;;
33786;SDS011;29742;51.540;9.358;2022-07-03T13:46:06;2.17;;;1.60;;
33786;SDS011;29742;51.540;9.358;2022-07-03T13:51:07;2.70;;;1.50;;
33786;SDS011;29742;51.540;9.358;2022-07-03T13:56:08;2.53;;;1.55;;
33786;SDS011;29742;51.540;9.358;2022-07-03T14:01:09;2.65;;;1.58;;
33786;SDS011;29742;51.540;9.358;2022-07-03T14:06:10;3.00;;;1.60;;
33786;SDS011;29742;51.540;9.358;2022-07-03T14:11:11;1.90;;;1.38;;
33786;SDS011;29742;51.540;9.358;2022-07-03T14:16:12;3.90;;;1.40;;
33786;SDS011;29742;51.540;9.358;2022-07-03T14:21:13;3.17;;;1.30;;
33786;SDS011;29742;51.540;9.358;2022-07-03T14:26:14;2.30;;;1.63;;
33786;SDS011;29742;51.540;9.358;2022-07-03T14:31:15;2.55;;;1.27;;
33786;SDS011;29742;51.540;9.358;2022-07-03T14:36:36;2.03;;;1.00;;
33786;SDS011;29742;51.540;9.358;2022-07-03T14:41:37;3.10;;;1.70;;
33786;SDS011;29742;51.540;9.358;2022-07-03T14:46:38;3.53;;;1.42;;
33786;SDS011;29742;51.540;9.358;2022-07-03T14:51:39;4.03;;;1.38;;
33786;SDS011;29742;51.540;9.358;2022-07-03T14:56:40;2.85;;;1.40;;
33786;SDS011;29742;51.540;9.358;2022-07-03T15:01:45;3.10;;;1.20;;
33786;SDS011;29742;51.540;9.358;2022-07-03T15:06:48;2.90;;;1.63;;
33786;SDS011;29742;51.540;9.358;2022-07-03T15:11:53;3.60;;;1.45;;
33786;SDS011;29742;51.540;9.358;2022-07-03T15:17:13;3.95;;;1.70;;
33786;SDS011;29742;51.540;9.358;2022-07-03T15:22:16;1.67;;;0.93;;
33786;SDS011;29742;51.540;9.358;2022-07-03T15:27:21;2.80;;;1.50;;
33786;SDS011;29742;51.540;9.358;2022-07-03T15:32:22;2.15;;;1.30;;
33786;SDS011;29742;51.540;9.358;2022-07-03T15:53:03;1.88;;;1.40;;
33786;SDS011;29742;51.540;9.358;2022-07-03T15:58:06;2.40;;;1.45;;
33786;SDS011;29742;51.540;9.358;2022-07-03T16:08:21;2.45;;;1.40;;
33786;SDS011;29742;51.540;9.358;2022-07-03T16:13:26;3.65;;;1.90;;
33786;SDS011;29742;51.540;9.358;2022-07-03T16:18:28;1.65;;;0.85;;
33786;SDS011;29742;51.540;9.358;2022-07-03T16:23:29;1.83;;;1.00;;
33786;SDS011;29742;51.540;9.358;2022-07-03T16:28:30;1.33;;;0.90;;
33786;SDS011;29742;51.540;9.358;2022-07-03T16:33:33;1.42;;;1.00;;
33786;SDS011;29742;51.540;9.358;2022-07-03T16:38:35;1.55;;;1.23;;
33786;SDS011;29742;51.540;9.358;2022-07-03T16:43:38;3.40;;;1.90;;
33786;SDS011;29742;51.540;9.358;2022-07-03T16:48:43;1.98;;;1.08;;
33786;SDS011;29742;51.540;9.358;2022-07-03T16:53:45;1.52;;;0.85;;
33786;SDS011;29742;51.540;9.358;2022-07-03T16:58:46;1.77;;;0.88;;
33786;SDS011;29742;51.540;9.358;2022-07-03T17:03:47;1.52;;;0.80;;
33786;SDS011;29742;51.540;9.358;2022-07-03T17:08:48;1.85;;;0.93;;
33786;SDS011;29742;51.540;9.358;2022-07-03T17:13:49;2.28;;;1.33;;
33786;SDS011;29742;51.540;9.358;2022-07-03T17:18:51;2.17;;;1.08;;
33786;SDS011;29742;51.540;9.358;2022-07-03T17:23:53;1.75;;;1.17;;
33786;SDS011;29742;51.540;9.358;2022-07-03T17:28:57;2.33;;;1.00;;
33786;SDS011;29742;51.540;9.358;2022-07-03T17:34:00;4.22;;;1.35;;
33786;SDS011;29742;51.540;9.358;2022-07-03T17:39:02;0.80;;;0.80;;
33786;SDS011;29742;51.540;9.358;2022-07-03T17:44:03;1.55;;;1.02;;
33786;SDS011;29742;51.540;9.358;2022-07-03T17:49:05;1.33;;;0.80;;
33786;SDS011;29742;51.540;9.358;2022-07-03T17:54:07;1.67;;;0.80;;
33786;SDS011;29742;51.540;9.358;2022-07-03T17:59:08;1.08;;;0.90;;
33786;SDS011;29742;51.540;9.358;2022-07-03T18:04:09;1.55;;;1.00;;
33786;SDS011;29742;51.540;9.358;2022-07-03T18:09:12;2.85;;;1.20;;
33786;SDS011;29742;51.540;9.358;2022-07-03T18:14:18;1.45;;;0.95;;
33786;SDS011;29742;51.540;9.358;2022-07-03T18:19:20;1.15;;;0.65;;
33786;SDS011;29742;51.540;9.358;2022-07-03T18:24:23;1.50;;;1.02;;
33786;SDS011;29742;51.540;9.358;2022-07-03T18:29:25;1.30;;;1.00;;
33786;SDS011;29742;51.540;9.358;2022-07-03T18:34:26;1.55;;;0.77;;
33786;SDS011;29742;51.540;9.358;2022-07-03T18:39:27;2.05;;;0.98;;
33786;SDS011;29742;51.540;9.358;2022-07-03T18:44:29;1.00;;;0.75;;
33786;SDS011;29742;51.540;9.358;2022-07-03T18:49:32;1.23;;;1.05;;
33786;SDS011;29742;51.540;9.358;2022-07-03T19:00:06;1.15;;;0.93;;
33786;SDS011;29742;51.540;9.358;2022-07-03T19:05:13;1.13;;;0.80;;
33786;SDS011;29742;51.540;9.358;2022-07-03T19:10:15;2.17;;;1.02;;
33786;SDS011;29742;51.540;9.358;2022-07-03T19:15:51;1.30;;;1.00;;
33786;SDS011;29742;51.540;9.358;2022-07-03T19:20:45;1.50;;;0.82;;
33786;SDS011;29742;51.540;9.358;2022-07-03T19:25:46;1.23;;;0.93;;
33786;SDS011;29742;51.540;9.358;2022-07-03T19:30:47;0.82;;;0.70;;
33786;SDS011;29742;51.540;9.358;2022-07-03T19:35:48;0.98;;;0.82;;
33786;SDS011;29742;51.540;9.358;2022-07-03T19:40:49;0.90;;;0.80;;
33786;SDS011;29742;51.540;9.358;2022-07-03T19:45:50;0.70;;;0.70;;
33786;SDS011;29742;51.540;9.358;2022-07-03T19:50:51;1.23;;;0.60;;
33786;SDS011;29742;51.540;9.358;2022-07-03T19:55:52;1.42;;;0.73;;
33786;SDS011;29742;51.540;9.358;2022-07-03T20:00:53;0.93;;;0.60;;
33786;SDS011;29742;51.540;9.358;2022-07-03T20:05:55;1.63;;;0.90;;
33786;SDS011;29742;51.540;9.358;2022-07-03T20:10:56;1.17;;;0.88;;
33786;SDS011;29742;51.540;9.358;2022-07-03T20:15:57;1.08;;;0.73;;
33786;SDS011;29742;51.540;9.358;2022-07-03T20:20:59;1.25;;;0.80;;
33786;SDS011;29742;51.540;9.358;2022-07-03T20:26:00;1.00;;;0.70;;
33786;SDS011;29742;51.540;9.358;2022-07-03T20:31:03;0.73;;;0.73;;
33786;SDS011;29742;51.540;9.358;2022-07-03T20:36:04;0.98;;;0.80;;
33786;SDS011;29742;51.540;9.358;2022-07-03T20:41:06;1.98;;;0.75;;
33786;SDS011;29742;51.540;9.358;2022-07-03T20:46:08;0.85;;;0.60;;
33786;SDS011;29742;51.540;9.358;2022-07-03T20:51:09;1.58;;;0.80;;
33786;SDS011;29742;51.540;9.358;2022-07-03T20:56:10;1.08;;;0.70;;
33786;SDS011;29742;51.540;9.358;2022-07-03T21:01:11;1.27;;;0.88;;
33786;SDS011;29742;51.540;9.358;2022-07-03T21:06:12;1.10;;;0.60;;
33786;SDS011;29742;51.540;9.358;2022-07-03T21:11:25;0.35;;;0.35;;
33786;SDS011;29742;51.540;9.358;2022-07-03T21:16:38;1.00;;;0.90;;
33786;SDS011;29742;51.540;9.358;2022-07-03T21:21:39;0.93;;;0.73;;
33786;SDS011;29742;51.540;9.358;2022-07-03T21:26:41;1.05;;;0.52;;
33786;SDS011;29742;51.540;9.358;2022-07-03T21:31:42;3.13;;;1.10;;
33786;SDS011;29742;51.540;9.358;2022-07-03T21:36:43;1.02;;;0.85;;
33786;SDS011;29742;51.540;9.358;2022-07-03T21:41:44;1.17;;;0.77;;
33786;SDS011;29742;51.540;9.358;2022-07-03T21:46:46;0.60;;;0.47;;
33786;SDS011;29742;51.540;9.358;2022-07-03T21:51:51;2.15;;;0.55;;
33786;SDS011;29742;51.540;9.358;2022-07-03T21:56:52;1.35;;;0.70;;
33786;SDS011;29742;51.540;9.358;2022-07-03T22:01:53;1.23;;;0.88;;
33786;SDS011;29742;51.540;9.358;2022-07-03T22:06:54;0.82;;;0.80;;
33786;SDS011;29742;51.540;9.358;2022-07-03T22:11:55;0.80;;;0.80;;
33786;SDS011;29742;51.540;9.358;2022-07-03T22:17:15;1.08;;;0.80;;
33786;SDS011;29742;51.540;9.358;2022-07-03T22:22:16;0.70;;;0.70;;
33786;SDS011;29742;51.540;9.358;2022-07-03T22:27:16;1.10;;;0.75;;
33786;SDS011;29742;51.540;9.358;2022-07-03T22:32:18;1.05;;;0.73;;
33786;SDS011;29742;51.540;9.358;2022-07-03T22:37:19;2.03;;;1.05;;
33786;SDS011;29742;51.540;9.358;2022-07-03T22:42:20;0.80;;;0.80;;
33786;SDS011;29742;51.540;9.358;2022-07-03T22:47:21;0.75;;;0.70;;
33786;SDS011;29742;51.540;9.358;2022-07-03T22:52:22;0.77;;;0.68;;
33786;SDS011;29742;51.540;9.358;2022-07-03T22:57:23;0.77;;;0.77;;
33786;SDS011;29742;51.540;9.358;2022-07-03T23:02:24;3.08;;;0.95;;
33786;SDS011;29742;51.540;9.358;2022-07-03T23:07:25;1.00;;;0.73;;
33786;SDS011;29742;51.540;9.358;2022-07-03T23:12:25;0.95;;;0.77;;
33786;SDS011;29742;51.540;9.358;2022-07-03T23:17:26;1.02;;;0.68;;
33786;SDS011;29742;51.540;9.358;2022-07-03T23:22:27;0.70;;;0.70;;
33786;SDS011;29742;51.540;9.358;2022-07-03T23:27:28;0.60;;;0.60;;
33786;SDS011;29742;51.540;9.358;2022-07-03T23:32:29;1.63;;;0.73;;
33786;SDS011;29742;51.540;9.358;2022-07-03T23:37:30;0.93;;;0.70;;
33786;SDS011;29742;51.540;9.358;2022-07-03T23:42:31;1.00;;;0.63;;
33786;SDS011;29742;51.540;9.358;2022-07-03T23:47:32;1.10;;;0.80;;
33786;SDS011;29742;51.540;9.358;2022-07-03T23:52:33;0.50;;;0.50;;
33786;SDS011;29742;51.540;9.358;2022-07-03T23:57:44;1.00;;;0.50;;
